Wideawake, St. Helena

2:33 PM GMT on February 28, 2017 (GMT +0000)
Ascension Aux Air Base / Wideawake Field | | Change Station

Elev 259 ft 7.97 °S, 14.40 °W | Updated 43 minutes ago

Clear
Clear
86 °F
Feels Like 90 °F
N
17
Wind Variable Wind from SSE

Today
High -- | Low -- °F
--% Chance of Precip.
Yesterday
High -- | Low -- °F
Precip. -- in
Pressure 29.86 in
Visibility 6.2 miles
Clouds Few 2200 ft
Heat Index 90 °F
Dew Point 70 °F
Humidity 58%
Rainfall 0.00 in
Snow Depth Not available.
7:02 AM 7:17 PM
Waxing Crescent, 5% visible
METAR FHAW 281350Z 16015KT 9999 FEW022 30/21 Q1011 BLU TEMPO SCT022 WHT
Pressure 29.86 in
Visibility 6.2 miles
Clouds Few 2200 ft
Heat Index 90 °F
Dew Point 70 °F
Humidity 58%
Rainfall 0.00 in
Snow Depth Not available.
7:02 AM 7:17 PM
Waxing Crescent, 5% visible
METAR FHAW 281350Z 16015KT 9999 FEW022 30/21 Q1011 BLU TEMPO SCT022 WHT

Get Your Daily Forecast Email!

Thanks for signing up!

Be on the lookout for a verification email in your inbox.

You'll start receiving the daily forecast at 8 AM.

×

10-Day Weather Forecast

No radar image for this location.
×

Almanac

Astronomy

Feb. 28, 2017 Rise Set
Actual Time
Civil Twilight
Nautical Twilight
Astronomical Twilight
Moon
Length of Visible Light
Length of Day
Tomorrow will be .
, % of the Moon is Illuminated

Today's Extremes

Country Highs Country Lows

Community

WunderPhotos

Upload Photos

1,962,540 photos uploaded!

WunderBlog® & News

Nearby

Air Quality

  Air Quality AQ Index Pollutant
Not available.

Snow Depth

Station Depth Elevation

Earthquake Activity

City Distance Mag. Time & Date
Minimum magnitude displayed is 2.5.

Coastal Water Temperatures

Place Temperature

Stations

Nearby Weather Stations

Station Location Temp. Windchill Dew Point Humidity Wind Precip. Elev Updated Type